Time;durP1;ratioP1;P1;durP2;ratioP2;P2;SDS_P1;SDS_P2;PMS_P1;PMS_P2;Temp;Humidity;BMP_temperature;BMP_pressure;BME280_temperature;BME280_humidity;BME280_pressure;Samples;Min_cycle;Max_cycle;Signal;HPM_P1;HPM_P2
2022/07/06 00:01:17;;;;;;;;;;;16.30;99.90;;;;;;5004884;28;20356;-66
2022/07/06 00:03:46;;;;;;;;;;;16.20;99.90;;;;;;5009317;28;19956;-67
2022/07/06 00:06:16;;;;;;;;;;;15.90;99.90;;;;;;5003181;28;20275;-65
2022/07/06 00:08:42;;;;;;;;;;;15.70;99.90;;;;;;5012652;28;19919;-64
2022/07/06 00:11:08;;;;;;;;;;;15.60;99.90;;;;;;4992733;28;19918;-68
2022/07/06 00:13:33;;;;;;;;;;;15.60;99.90;;;;;;5012450;28;20282;-67
2022/07/06 00:15:59;;;;;;;;;;;15.70;99.90;;;;;;5013139;28;20466;-66
2022/07/06 00:18:24;;;;;;;;;;;15.80;99.90;;;;;;5008415;28;19960;-68
2022/07/06 00:20:50;;;;;;;;;;;15.70;99.90;;;;;;5009004;28;19971;-66
2022/07/06 00:23:16;;;;;;;;;;;15.80;99.90;;;;;;5008251;28;19940;-67
2022/07/06 00:25:41;;;;;;;;;;;15.70;99.90;;;;;;5010373;28;19921;-65
2022/07/06 00:28:07;;;;;;;;;;;15.70;99.90;;;;;;5007994;28;20311;-67
2022/07/06 00:30:32;;;;;;;;;;;15.60;99.90;;;;;;5008778;28;19917;-67
2022/07/06 00:32:58;;;;;;;;;;;15.50;99.90;;;;;;5010952;28;19917;-66
2022/07/06 00:35:24;;;;;;;;;;;15.50;99.90;;;;;;5010502;28;19914;-67
2022/07/06 00:37:50;;;;;;;;;;;15.40;99.90;;;;;;4993432;28;20287;-66
2022/07/06 00:40:15;;;;;;;;;;;15.40;99.90;;;;;;4992113;28;19996;-67
2022/07/06 00:42:41;;;;;;;;;;;15.40;99.90;;;;;;5008529;28;19913;-67
2022/07/06 00:45:07;;;;;;;;;;;15.30;99.90;;;;;;5006371;28;20407;-68
2022/07/06 00:47:32;;;;;;;;;;;15.30;99.90;;;;;;5008923;28;19976;-67
2022/07/06 00:52:42;;;;;;;;;;;15.10;99.90;;;;;;5010520;28;20012;-66
2022/07/06 00:55:09;;;;;;;;;;;15.10;99.90;;;;;;5009674;28;20004;-66
2022/07/06 00:57:35;;;;;;;;;;;15.10;99.90;;;;;;5010156;28;19917;-67
2022/07/06 01:00:02;;;;;;;;;;;15.00;99.90;;;;;;5007484;28;20318;-66
2022/07/06 01:02:30;;;;;;;;;;;15.00;99.90;;;;;;4991989;28;19968;-67
2022/07/06 01:04:55;;;;;;;;;;;15.00;99.90;;;;;;5007814;28;20358;-66
2022/07/06 01:07:23;;;;;;;;;;;15.00;99.90;;;;;;5006365;28;19913;-67
2022/07/06 01:09:49;;;;;;;;;;;15.00;99.90;;;;;;5010822;28;19921;-65
2022/07/06 01:12:18;;;;;;;;;;;15.00;99.90;;;;;;5009080;28;20403;-66
2022/07/06 01:14:44;;;;;;;;;;;15.10;99.90;;;;;;5010397;28;20275;-66
2022/07/06 01:17:10;;;;;;;;;;;15.10;99.90;;;;;;5007083;28;19917;-66
2022/07/06 01:19:36;;;;;;;;;;;15.10;99.90;;;;;;5008189;28;20253;-65
2022/07/06 01:22:03;;;;;;;;;;;15.10;99.90;;;;;;5007439;28;23479;-66
2022/07/06 01:24:29;;;;;;;;;;;15.00;99.90;;;;;;5006709;28;19914;-65
2022/07/06 01:26:54;;;;;;;;;;;14.90;99.90;;;;;;5009698;28;19925;-66
2022/07/06 01:29:20;;;;;;;;;;;14.90;99.90;;;;;;5012157;28;19917;-68
2022/07/06 01:31:47;;;;;;;;;;;14.90;99.90;;;;;;5007560;28;20437;-67
2022/07/06 01:34:13;;;;;;;;;;;15.00;99.90;;;;;;4993441;28;19913;-66
2022/07/06 01:36:39;;;;;;;;;;;15.00;99.90;;;;;;4987550;28;19929;-67
2022/07/06 01:39:04;;;;;;;;;;;15.00;99.90;;;;;;5007156;28;20013;-66
2022/07/06 01:41:30;;;;;;;;;;;15.00;99.90;;;;;;5008683;28;19917;-66
2022/07/06 01:43:55;;;;;;;;;;;15.00;99.90;;;;;;5009328;28;19920;-65
2022/07/06 01:46:21;;;;;;;;;;;15.00;99.90;;;;;;5006988;28;19913;-66
2022/07/06 01:48:47;;;;;;;;;;;14.90;99.90;;;;;;5007403;28;19913;-67
2022/07/06 01:51:13;;;;;;;;;;;14.70;99.90;;;;;;4988931;28;19948;-67
2022/07/06 01:53:38;;;;;;;;;;;14.70;99.90;;;;;;5009799;28;19913;-66
2022/07/06 01:56:04;;;;;;;;;;;14.80;99.90;;;;;;4988903;28;19992;-66
2022/07/06 01:58:30;;;;;;;;;;;14.70;99.90;;;;;;5007433;28;19913;-66
2022/07/06 02:00:55;;;;;;;;;;;14.70;99.90;;;;;;5006230;28;20000;-66
2022/07/06 02:03:21;;;;;;;;;;;14.70;99.90;;;;;;5006513;28;20287;-68
2022/07/06 02:05:46;;;;;;;;;;;14.80;99.90;;;;;;5006519;28;20291;-66
2022/07/06 02:08:12;;;;;;;;;;;14.80;99.90;;;;;;5006638;28;19917;-66
2022/07/06 02:10:38;;;;;;;;;;;14.80;99.90;;;;;;5003302;28;19925;-66
2022/07/06 02:13:03;;;;;;;;;;;14.70;99.90;;;;;;5006620;28;19914;-66
2022/07/06 02:15:29;;;;;;;;;;;14.60;99.90;;;;;;5001805;28;20040;-66
2022/07/06 02:17:54;;;;;;;;;;;14.60;99.90;;;;;;5005882;28;20314;-66
2022/07/06 02:20:20;;;;;;;;;;;14.70;99.90;;;;;;5005045;28;19995;-66
2022/07/06 02:22:46;;;;;;;;;;;14.60;99.90;;;;;;5006609;28;19936;-66
2022/07/06 02:25:12;;;;;;;;;;;14.60;99.90;;;;;;5003923;28;19924;-65
2022/07/06 02:27:37;;;;;;;;;;;14.70;99.90;;;;;;5004403;28;19928;-66
2022/07/06 02:30:04;;;;;;;;;;;14.70;99.90;;;;;;5004050;28;19914;-66
2022/07/06 02:32:29;;;;;;;;;;;14.60;99.90;;;;;;5004886;28;19953;-66
2022/07/06 02:34:55;;;;;;;;;;;14.50;99.90;;;;;;5001128;28;20020;-66
2022/07/06 02:37:20;;;;;;;;;;;14.50;99.90;;;;;;4993915;28;19913;-67
2022/07/06 02:39:46;;;;;;;;;;;14.70;99.90;;;;;;5003206;28;19922;-66
2022/07/06 02:42:11;;;;;;;;;;;14.90;99.90;;;;;;5004507;28;20482;-66
2022/07/06 02:44:37;;;;;;;;;;;15.00;99.90;;;;;;4996317;28;20383;-66
2022/07/06 02:47:03;;;;;;;;;;;15.00;99.90;;;;;;5006653;28;19959;-66
2022/07/06 02:49:28;;;;;;;;;;;15.10;99.90;;;;;;5003155;28;20005;-66
2022/07/06 02:51:54;;;;;;;;;;;15.10;99.90;;;;;;5005413;28;19921;-67
2022/07/06 02:54:20;;;;;;;;;;;15.10;99.90;;;;;;5004004;28;19932;-67
2022/07/06 02:56:50;;;;;;;;;;;15.20;99.90;;;;;;5003741;28;19913;-64
2022/07/06 02:59:16;;;;;;;;;;;15.20;99.90;;;;;;5000487;28;20383;-65
2022/07/06 03:01:42;;;;;;;;;;;15.30;99.90;;;;;;5006316;28;19948;-65
2022/07/06 03:04:07;;;;;;;;;;;15.30;99.90;;;;;;5003603;28;20003;-66
2022/07/06 03:06:33;;;;;;;;;;;15.30;99.90;;;;;;5003608;28;20414;-65
2022/07/06 03:08:58;;;;;;;;;;;15.40;99.90;;;;;;4989505;28;19982;-66
2022/07/06 03:11:25;;;;;;;;;;;15.50;99.90;;;;;;5002876;28;20087;-66
2022/07/06 03:13:51;;;;;;;;;;;15.50;99.90;;;;;;5006259;28;20286;-66
2022/07/06 03:16:16;;;;;;;;;;;15.50;99.90;;;;;;5004370;28;19918;-67
2022/07/06 03:18:45;;;;;;;;;;;15.50;99.90;;;;;;4986945;28;19919;-66
2022/07/06 03:21:10;;;;;;;;;;;15.50;99.90;;;;;;5006359;28;20286;-67
2022/07/06 03:23:36;;;;;;;;;;;15.60;99.90;;;;;;5005378;28;19913;-66
2022/07/06 03:26:02;;;;;;;;;;;15.60;99.90;;;;;;5007498;28;19913;-67
2022/07/06 03:28:27;;;;;;;;;;;15.60;99.90;;;;;;5007792;28;19914;-67
2022/07/06 03:30:53;;;;;;;;;;;15.50;99.90;;;;;;5006805;28;19935;-66
2022/07/06 03:33:18;;;;;;;;;;;15.60;99.90;;;;;;5003710;28;20004;-66
2022/07/06 03:35:44;;;;;;;;;;;15.60;99.90;;;;;;5008057;28;19924;-66
2022/07/06 03:38:09;;;;;;;;;;;15.60;99.90;;;;;;5006335;28;19996;-66
2022/07/06 03:40:35;;;;;;;;;;;15.70;99.90;;;;;;5009273;28;19914;-66
2022/07/06 03:43:00;;;;;;;;;;;15.60;99.90;;;;;;5008618;28;19917;-65
2022/07/06 03:45:26;;;;;;;;;;;15.60;99.90;;;;;;4986562;28;19926;-66
2022/07/06 03:47:52;;;;;;;;;;;15.60;99.90;;;;;;5002703;28;20379;-67
2022/07/06 03:50:17;;;;;;;;;;;15.50;99.90;;;;;;5008000;28;19925;-67
2022/07/06 03:52:43;;;;;;;;;;;15.60;99.90;;;;;;5007946;28;19914;-67
2022/07/06 03:55:09;;;;;;;;;;;15.60;99.90;;;;;;5009001;28;19955;-67
2022/07/06 03:57:35;;;;;;;;;;;15.50;99.90;;;;;;5008569;28;19921;-66
2022/07/06 04:00:01;;;;;;;;;;;15.60;99.90;;;;;;5004264;28;19920;-67
2022/07/06 04:02:27;;;;;;;;;;;15.70;99.90;;;;;;5010197;28;19976;-67
2022/07/06 04:04:52;;;;;;;;;;;15.70;99.90;;;;;;5006241;28;19957;-66
2022/07/06 04:07:18;;;;;;;;;;;15.60;99.90;;;;;;5005715;28;19917;-66
2022/07/06 04:09:43;;;;;;;;;;;15.70;99.90;;;;;;5007931;28;19945;-66
2022/07/06 04:12:09;;;;;;;;;;;15.70;99.90;;;;;;5011873;28;19957;-66
2022/07/06 04:14:35;;;;;;;;;;;15.60;99.90;;;;;;5010791;28;19952;-67
2022/07/06 04:17:51;;;;;;;;;;;15.70;99.90;;;;;;5011252;28;20431;-67
2022/07/06 04:19:46;;;;;;;;;;;15.80;99.90;;;;;;5007855;28;19913;-66
2022/07/06 04:22:12;;;;;;;;;;;15.80;99.90;;;;;;5009926;28;20371;-65
2022/07/06 04:24:37;;;;;;;;;;;15.80;99.90;;;;;;5009743;28;20342;-66
2022/07/06 04:27:03;;;;;;;;;;;15.90;99.90;;;;;;5009048;28;19949;-66
2022/07/06 04:29:28;;;;;;;;;;;16.00;99.90;;;;;;5009147;28;19974;-65
2022/07/06 04:31:54;;;;;;;;;;;15.90;99.90;;;;;;5009233;28;20023;-65
2022/07/06 04:34:20;;;;;;;;;;;15.80;99.90;;;;;;5009603;28;19914;-67
2022/07/06 04:36:45;;;;;;;;;;;15.70;99.90;;;;;;5006807;28;19963;-66
2022/07/06 04:39:11;;;;;;;;;;;15.70;99.90;;;;;;5006723;28;19960;-66
2022/07/06 04:41:37;;;;;;;;;;;15.80;99.90;;;;;;5010703;28;20375;-66
2022/07/06 04:44:03;;;;;;;;;;;15.90;99.90;;;;;;5011316;28;19949;-66
2022/07/06 04:46:29;;;;;;;;;;;15.90;99.90;;;;;;5012782;28;20371;-66
2022/07/06 04:48:54;;;;;;;;;;;15.70;99.90;;;;;;5008682;28;20938;-66
2022/07/06 04:51:20;;;;;;;;;;;15.70;99.90;;;;;;5007789;28;20016;-66
2022/07/06 04:53:46;;;;;;;;;;;15.70;99.90;;;;;;4993688;28;19914;-66
2022/07/06 04:56:12;;;;;;;;;;;15.80;99.90;;;;;;5011568;28;19913;-66
2022/07/06 04:58:38;;;;;;;;;;;16.00;99.90;;;;;;5009526;28;20382;-66
2022/07/06 05:01:06;;;;;;;;;;;16.10;99.90;;;;;;4988743;28;19913;-67
2022/07/06 05:03:35;;;;;;;;;;;16.20;99.90;;;;;;5010995;28;19913;-68
2022/07/06 05:06:00;;;;;;;;;;;16.30;99.90;;;;;;5006772;28;19913;-67
2022/07/06 05:08:26;;;;;;;;;;;16.40;99.90;;;;;;5011133;28;19921;-66
2022/07/06 05:10:51;;;;;;;;;;;16.40;99.90;;;;;;4988601;28;20000;-67
2022/07/06 05:13:17;;;;;;;;;;;16.50;99.90;;;;;;5008897;28;19926;-66
2022/07/06 05:15:43;;;;;;;;;;;16.50;99.90;;;;;;5009112;28;20190;-66
2022/07/06 05:18:08;;;;;;;;;;;16.60;99.90;;;;;;5008803;28;19917;-66
2022/07/06 05:20:34;;;;;;;;;;;16.60;99.90;;;;;;5006664;28;20248;-65
2022/07/06 05:23:00;;;;;;;;;;;16.60;99.90;;;;;;5006054;28;19997;-67
2022/07/06 05:25:25;;;;;;;;;;;16.60;99.90;;;;;;5019649;28;19921;-66
2022/07/06 05:27:51;;;;;;;;;;;16.50;99.90;;;;;;5003734;28;19975;-66
2022/07/06 05:30:16;;;;;;;;;;;16.50;99.90;;;;;;5000957;28;19967;-66
2022/07/06 05:32:42;;;;;;;;;;;16.50;99.90;;;;;;5007361;28;20389;-67
2022/07/06 05:35:08;;;;;;;;;;;16.50;99.90;;;;;;5003665;28;19920;-67
2022/07/06 05:37:33;;;;;;;;;;;16.50;99.90;;;;;;5002803;28;19913;-66
2022/07/06 05:39:59;;;;;;;;;;;16.50;99.90;;;;;;5006427;28;19928;-67
2022/07/06 05:42:24;;;;;;;;;;;16.60;99.90;;;;;;5005993;28;19914;-66
2022/07/06 05:44:54;;;;;;;;;;;16.60;99.90;;;;;;5005110;28;19914;-67
2022/07/06 05:50:12;;;;;;;;;;;16.60;99.90;;;;;;5005827;28;19920;-67
2022/07/06 05:52:45;;;;;;;;;;;16.70;99.90;;;;;;5005155;28;19913;-66
2022/07/06 05:55:13;;;;;;;;;;;16.90;99.90;;;;;;5002484;28;19936;-66
2022/07/06 05:57:40;;;;;;;;;;;17.10;99.90;;;;;;5008218;28;19914;-66
2022/07/06 06:00:06;;;;;;;;;;;17.20;99.90;;;;;;5001300;28;20261;-66
2022/07/06 06:02:41;;;;;;;;;;;17.20;99.90;;;;;;5008056;28;19968;-67
2022/07/06 06:05:07;;;;;;;;;;;17.30;99.90;;;;;;5000840;28;20471;-66
2022/07/06 06:07:37;;;;;;;;;;;17.30;99.90;;;;;;5005909;28;20342;-67
2022/07/06 06:10:10;;;;;;;;;;;17.30;99.90;;;;;;5008453;28;20276;-66
2022/07/06 06:12:36;;;;;;;;;;;17.40;99.90;;;;;;5004972;28;20024;-67
2022/07/06 06:15:01;;;;;;;;;;;17.30;99.90;;;;;;5004279;28;20033;-66
2022/07/06 06:17:27;;;;;;;;;;;17.40;99.90;;;;;;5001192;28;19921;-67
2022/07/06 06:19:53;;;;;;;;;;;17.50;99.90;;;;;;5006455;28;19917;-66
2022/07/06 06:22:18;;;;;;;;;;;17.50;99.90;;;;;;5021985;28;20402;-67
2022/07/06 06:24:44;;;;;;;;;;;17.70;99.90;;;;;;5002345;28;19913;-66
2022/07/06 06:27:09;;;;;;;;;;;17.80;99.90;;;;;;5004969;28;19921;-66
2022/07/06 06:29:35;;;;;;;;;;;17.90;99.90;;;;;;5003619;28;19921;-66
2022/07/06 06:32:01;;;;;;;;;;;18.10;99.90;;;;;;4995768;28;19922;-67
2022/07/06 06:34:26;;;;;;;;;;;18.20;99.90;;;;;;4997382;28;19917;-67
2022/07/06 06:36:52;;;;;;;;;;;18.40;99.90;;;;;;5002201;28;19928;-66
2022/07/06 06:39:17;;;;;;;;;;;18.50;99.90;;;;;;5001118;28;19969;-67
2022/07/06 06:41:43;;;;;;;;;;;18.50;99.90;;;;;;5003418;28;19928;-66
2022/07/06 06:44:09;;;;;;;;;;;18.70;99.90;;;;;;5001226;28;20008;-66
2022/07/06 06:46:34;;;;;;;;;;;18.90;99.90;;;;;;5004804;28;20540;-67
2022/07/06 06:49:00;;;;;;;;;;;19.00;99.90;;;;;;5002869;28;19913;-66
2022/07/06 06:51:25;;;;;;;;;;;19.10;99.90;;;;;;4999404;28;20390;-67
2022/07/06 06:53:51;;;;;;;;;;;19.10;99.90;;;;;;5002533;28;20014;-66
2022/07/06 06:56:16;;;;;;;;;;;19.00;99.90;;;;;;5004924;28;19914;-66
2022/07/06 06:58:42;;;;;;;;;;;18.90;99.90;;;;;;5001746;28;19952;-68
2022/07/06 07:01:08;;;;;;;;;;;18.90;99.90;;;;;;4999107;28;19960;-69
2022/07/06 07:03:34;;;;;;;;;;;18.90;99.90;;;;;;4998921;28;20330;-67
2022/07/06 07:05:59;;;;;;;;;;;18.90;99.90;;;;;;5003405;28;19979;-68
2022/07/06 07:08:25;;;;;;;;;;;18.90;99.90;;;;;;4997402;28;20329;-67
2022/07/06 07:10:50;;;;;;;;;;;19.10;99.90;;;;;;5003452;28;19921;-67
2022/07/06 07:13:16;;;;;;;;;;;19.00;99.90;;;;;;5001548;28;19944;-67
2022/07/06 07:15:42;;;;;;;;;;;19.10;99.90;;;;;;5006269;28;19944;-67
2022/07/06 07:18:08;;;;;;;;;;;19.10;99.90;;;;;;5004582;28;20372;-67
2022/07/06 07:20:33;;;;;;;;;;;19.20;99.90;;;;;;5022238;28;19913;-67
2022/07/06 07:22:59;;;;;;;;;;;19.20;99.90;;;;;;5005135;28;20383;-67
2022/07/06 07:25:25;;;;;;;;;;;19.00;99.90;;;;;;5000985;28;20298;-67
2022/07/06 07:27:51;;;;;;;;;;;19.10;99.90;;;;;;5002779;28;19917;-68
2022/07/06 07:30:16;;;;;;;;;;;19.10;99.90;;;;;;4987218;28;19980;-66
2022/07/06 07:32:42;;;;;;;;;;;19.20;99.90;;;;;;5003642;28;19917;-68
2022/07/06 07:35:08;;;;;;;;;;;19.30;99.90;;;;;;4989539;28;19985;-69
2022/07/06 07:37:34;;;;;;;;;;;19.20;99.90;;;;;;5002968;28;19971;-68
2022/07/06 07:40:00;;;;;;;;;;;19.50;99.90;;;;;;5003859;28;20317;-67
2022/07/06 07:42:25;;;;;;;;;;;19.50;99.90;;;;;;5000415;28;19921;-66
2022/07/06 07:44:51;;;;;;;;;;;19.70;99.90;;;;;;5003926;28;20336;-67
2022/07/06 07:47:17;;;;;;;;;;;19.70;99.90;;;;;;5005280;28;20279;-67
2022/07/06 07:49:42;;;;;;;;;;;19.60;99.90;;;;;;5012927;28;19914;-66
2022/07/06 07:52:08;;;;;;;;;;;19.50;99.90;;;;;;5009902;28;20425;-68
2022/07/06 07:54:33;;;;;;;;;;;19.50;99.90;;;;;;4990729;28;19914;-69
2022/07/06 07:56:59;;;;;;;;;;;19.40;99.90;;;;;;5006557;28;19920;-67
2022/07/06 07:59:25;;;;;;;;;;;19.30;99.90;;;;;;5007869;28;19917;-70
2022/07/06 08:01:51;;;;;;;;;;;19.40;99.90;;;;;;5004970;28;19980;-68
2022/07/06 08:04:16;;;;;;;;;;;19.30;99.90;;;;;;5003007;28;20450;-68
2022/07/06 08:06:42;;;;;;;;;;;19.40;99.90;;;;;;5006066;28;19917;-68
2022/07/06 08:09:08;;;;;;;;;;;19.50;99.90;;;;;;5002429;28;19913;-67
2022/07/06 08:11:34;;;;;;;;;;;19.50;99.90;;;;;;5007583;28;19929;-68
2022/07/06 08:14:00;;;;;;;;;;;19.70;99.90;;;;;;5004125;28;19918;-68
2022/07/06 08:16:25;;;;;;;;;;;19.70;99.90;;;;;;4990444;28;20265;-68
2022/07/06 08:18:51;;;;;;;;;;;19.70;99.90;;;;;;4989210;28;20584;-68
2022/07/06 08:21:17;;;;;;;;;;;19.80;99.90;;;;;;5008910;28;20626;-67
2022/07/06 08:23:43;;;;;;;;;;;20.00;99.90;;;;;;5001871;28;19949;-67
2022/07/06 08:26:09;;;;;;;;;;;20.20;99.90;;;;;;5006643;28;19957;-67
2022/07/06 08:28:34;;;;;;;;;;;20.60;99.90;;;;;;5006974;28;19917;-67
2022/07/06 08:31:00;;;;;;;;;;;20.70;99.90;;;;;;5009732;28;19928;-68
2022/07/06 08:33:26;;;;;;;;;;;20.70;99.90;;;;;;5002833;28;19936;-68
2022/07/06 08:35:51;;;;;;;;;;;20.60;99.90;;;;;;5007248;28;19913;-69
2022/07/06 08:38:17;;;;;;;;;;;20.70;99.90;;;;;;4992261;28;20284;-68
2022/07/06 08:40:45;;;;;;;;;;;20.90;99.90;;;;;;4983706;28;19972;-66
2022/07/06 08:43:11;;;;;;;;;;;21.10;99.90;;;;;;5006258;28;19913;-67
2022/07/06 08:45:37;;;;;;;;;;;21.00;99.90;;;;;;5005704;28;20020;-67
2022/07/06 08:48:04;;;;;;;;;;;21.10;99.90;;;;;;5007309;28;20000;-67
2022/07/06 08:50:30;;;;;;;;;;;21.30;99.90;;;;;;5005786;28;20379;-68
2022/07/06 08:52:55;;;;;;;;;;;21.40;99.90;;;;;;5007518;28;20004;-68
2022/07/06 08:55:21;;;;;;;;;;;21.70;99.90;;;;;;5006676;28;20013;-68
2022/07/06 08:57:47;;;;;;;;;;;21.50;99.90;;;;;;5007817;28;19913;-67
2022/07/06 09:00:13;;;;;;;;;;;21.50;99.90;;;;;;5009642;28;19913;-68
2022/07/06 09:02:40;;;;;;;;;;;21.40;99.90;;;;;;5007444;28;19936;-68
2022/07/06 09:05:06;;;;;;;;;;;21.40;99.90;;;;;;5005656;28;19924;-66
2022/07/06 09:07:32;;;;;;;;;;;21.40;99.90;;;;;;5005186;28;19914;-67
2022/07/06 09:09:58;;;;;;;;;;;21.40;99.90;;;;;;5006749;28;19920;-68
2022/07/06 09:12:26;;;;;;;;;;;21.40;99.90;;;;;;4975623;28;20375;-67
2022/07/06 09:14:54;;;;;;;;;;;21.30;99.90;;;;;;5008519;28;19960;-67
2022/07/06 09:17:19;;;;;;;;;;;21.20;99.90;;;;;;5007012;28;20331;-67
2022/07/06 09:19:46;;;;;;;;;;;21.10;99.90;;;;;;5009425;28;19920;-67
2022/07/06 09:22:24;;;;;;;;;;;21.10;99.90;;;;;;5013534;28;20371;-68
2022/07/06 09:24:50;;;;;;;;;;;21.20;99.90;;;;;;5002276;28;19972;-68
2022/07/06 09:27:17;;;;;;;;;;;21.30;99.90;;;;;;5008894;28;19960;-67
2022/07/06 09:29:42;;;;;;;;;;;21.00;99.90;;;;;;5007599;28;19913;-68
2022/07/06 09:32:08;;;;;;;;;;;21.10;99.90;;;;;;5005845;28;19976;-67
2022/07/06 09:34:41;;;;;;;;;;;21.00;99.90;;;;;;5005918;28;19936;-66
2022/07/06 09:37:06;;;;;;;;;;;21.10;99.90;;;;;;5007228;28;20431;-66
2022/07/06 09:39:32;;;;;;;;;;;20.80;99.90;;;;;;5004376;28;20013;-66
2022/07/06 09:41:59;;;;;;;;;;;20.80;99.90;;;;;;5004262;28;19925;-66
2022/07/06 09:44:26;;;;;;;;;;;20.80;99.90;;;;;;5007353;28;19913;-68
2022/07/06 09:46:52;;;;;;;;;;;20.80;99.90;;;;;;5009236;28;19920;-66
2022/07/06 09:49:18;;;;;;;;;;;20.80;99.90;;;;;;5007126;28;20190;-68
2022/07/06 09:51:46;;;;;;;;;;;21.00;99.90;;;;;;5000331;28;19925;-67
2022/07/06 09:54:11;;;;;;;;;;;21.10;99.90;;;;;;5008272;28;19914;-68
2022/07/06 09:56:40;;;;;;;;;;;21.30;99.90;;;;;;5005511;28;19917;-67
2022/07/06 09:59:13;;;;;;;;;;;21.20;99.90;;;;;;5006139;28;19918;-68
2022/07/06 10:01:39;;;;;;;;;;;21.10;99.90;;;;;;5005720;28;20291;-66
2022/07/06 10:04:05;;;;;;;;;;;21.20;99.90;;;;;;5002786;28;20321;-67
2022/07/06 10:06:31;;;;;;;;;;;21.30;99.90;;;;;;5001858;28;19921;-67
2022/07/06 10:08:58;;;;;;;;;;;21.20;99.90;;;;;;4999688;28;19913;-70
2022/07/06 10:11:26;;;;;;;;;;;21.30;99.90;;;;;;4997774;28;19925;-67
2022/07/06 10:13:55;;;;;;;;;;;21.50;99.90;;;;;;5006174;28;19918;-66
2022/07/06 10:16:25;;;;;;;;;;;21.60;99.90;;;;;;5007843;28;20050;-67
2022/07/06 10:18:53;;;;;;;;;;;21.90;99.90;;;;;;5000959;28;19914;-69
2022/07/06 10:21:20;;;;;;;;;;;22.00;99.90;;;;;;5007227;28;19925;-66
2022/07/06 10:23:46;;;;;;;;;;;21.90;99.90;;;;;;5006741;28;20359;-68
2022/07/06 10:26:12;;;;;;;;;;;21.60;99.90;;;;;;5000900;28;19966;-67
2022/07/06 10:28:38;;;;;;;;;;;21.70;99.90;;;;;;5003382;28;19925;-68
2022/07/06 10:31:04;;;;;;;;;;;21.40;99.90;;;;;;5003695;28;20017;-68
2022/07/06 10:33:31;;;;;;;;;;;21.50;99.90;;;;;;5006028;28;19972;-69
2022/07/06 10:35:57;;;;;;;;;;;21.40;99.90;;;;;;5003813;28;20418;-67
2022/07/06 10:38:30;;;;;;;;;;;21.30;99.90;;;;;;5007320;28;20356;-66
2022/07/06 10:41:03;;;;;;;;;;;21.50;99.90;;;;;;5004632;28;20395;-68
2022/07/06 10:43:41;;;;;;;;;;;21.80;99.90;;;;;;5002872;28;20391;-67
2022/07/06 10:46:08;;;;;;;;;;;22.00;99.90;;;;;;4986313;28;20004;-67
2022/07/06 10:48:35;;;;;;;;;;;22.10;99.90;;;;;;5007069;28;19955;-70
2022/07/06 10:51:02;;;;;;;;;;;22.40;99.90;;;;;;5001314;28;19975;-67
2022/07/06 10:53:30;;;;;;;;;;;22.30;99.90;;;;;;5005524;28;19918;-68
2022/07/06 10:55:56;;;;;;;;;;;22.30;99.90;;;;;;5004651;28;19929;-66
2022/07/06 10:58:41;;;;;;;;;;;22.20;99.90;;;;;;4985704;28;19924;-67
2022/07/06 11:01:10;;;;;;;;;;;22.10;99.90;;;;;;5000489;28;19914;-66
2022/07/06 11:04:04;;;;;;;;;;;22.00;99.90;;;;;;5008768;28;19921;-66
2022/07/06 11:06:34;;;;;;;;;;;22.00;99.90;;;;;;4984014;28;20053;-66
2022/07/06 11:09:01;;;;;;;;;;;22.30;99.90;;;;;;5014123;28;19918;-66
2022/07/06 11:11:52;;;;;;;;;;;22.50;99.90;;;;;;4998982;28;19921;-66
2022/07/06 11:14:20;;;;;;;;;;;22.70;99.90;;;;;;5003609;28;20008;-68
2022/07/06 11:16:49;;;;;;;;;;;22.80;98.00;;;;;;5002524;28;20324;-68
2022/07/06 11:19:18;;;;;;;;;;;22.50;97.60;;;;;;5011261;28;19921;-65
2022/07/06 11:21:44;;;;;;;;;;;22.30;98.50;;;;;;4995217;28;19921;-66
2022/07/06 11:24:14;;;;;;;;;;;22.30;99.30;;;;;;5003006;28;20283;-67
2022/07/06 11:26:40;;;;;;;;;;;22.20;98.60;;;;;;5012749;28;20028;-67
2022/07/06 11:29:07;;;;;;;;;;;22.10;98.70;;;;;;5010036;28;19948;-68
2022/07/06 11:31:34;;;;;;;;;;;22.00;99.30;;;;;;5019092;28;19925;-67
2022/07/06 11:34:19;;;;;;;;;;;22.00;99.10;;;;;;5005476;28;19921;-68
2022/07/06 11:36:44;;;;;;;;;;;22.10;99.00;;;;;;5006567;28;19922;-66
2022/07/06 11:39:10;;;;;;;;;;;22.20;98.20;;;;;;5003187;28;19913;-66
2022/07/06 11:41:36;;;;;;;;;;;22.30;97.80;;;;;;5009534;28;19913;-68
2022/07/06 11:44:02;;;;;;;;;;;22.40;97.40;;;;;;5002489;28;20016;-68
2022/07/06 11:46:29;;;;;;;;;;;22.40;97.80;;;;;;5015543;28;20347;-68
2022/07/06 11:48:56;;;;;;;;;;;22.20;97.70;;;;;;5005111;28;19925;-66
2022/07/06 11:51:22;;;;;;;;;;;22.30;97.40;;;;;;5003284;28;19926;-66
2022/07/06 11:53:49;;;;;;;;;;;22.30;98.20;;;;;;5007501;28;20059;-66
2022/07/06 11:56:16;;;;;;;;;;;22.50;97.70;;;;;;5003254;28;19925;-66
2022/07/06 11:58:43;;;;;;;;;;;22.70;96.70;;;;;;5004676;28;19936;-67
2022/07/06 12:01:10;;;;;;;;;;;22.80;95.90;;;;;;5022481;28;20003;-67
2022/07/06 12:03:36;;;;;;;;;;;22.80;95.90;;;;;;5007929;28;20339;-68
2022/07/06 12:06:05;;;;;;;;;;;22.80;96.30;;;;;;5023157;28;19972;-66
2022/07/06 12:08:33;;;;;;;;;;;22.90;96.00;;;;;;5007221;28;19964;-67
2022/07/06 12:10:59;;;;;;;;;;;22.70;95.70;;;;;;5000649;28;19928;-68
2022/07/06 12:13:25;;;;;;;;;;;22.60;95.70;;;;;;5011371;28;19917;-67
2022/07/06 12:15:50;;;;;;;;;;;22.40;94.90;;;;;;5009865;28;19905;-66
2022/07/06 12:18:16;;;;;;;;;;;22.20;95.60;;;;;;4999280;28;19910;-67
2022/07/06 12:20:42;;;;;;;;;;;22.40;95.80;;;;;;5004194;28;19921;-66
2022/07/06 12:23:11;;;;;;;;;;;22.50;96.00;;;;;;5009963;28;19929;-67
2022/07/06 12:25:37;;;;;;;;;;;22.60;95.80;;;;;;5009224;28;19913;-68
2022/07/06 12:28:06;;;;;;;;;;;22.80;95.20;;;;;;4992690;28;20260;-68
2022/07/06 12:30:33;;;;;;;;;;;23.00;94.50;;;;;;5009549;28;19929;-68
2022/07/06 12:33:18;;;;;;;;;;;23.00;94.40;;;;;;4988898;28;19921;-66
2022/07/06 12:35:44;;;;;;;;;;;23.20;93.30;;;;;;5009382;28;19971;-67
2022/07/06 12:38:10;;;;;;;;;;;22.90;93.00;;;;;;5001343;28;19957;-67
2022/07/06 12:40:36;;;;;;;;;;;22.80;93.80;;;;;;5016705;28;19917;-67
2022/07/06 12:43:05;;;;;;;;;;;23.00;93.30;;;;;;5005886;28;19918;-66
2022/07/06 12:45:31;;;;;;;;;;;23.20;92.80;;;;;;5009216;28;19985;-67
2022/07/06 12:48:01;;;;;;;;;;;23.00;93.40;;;;;;5013424;28;19914;-68
2022/07/06 12:50:38;;;;;;;;;;;22.70;94.00;;;;;;5009349;28;19922;-69
2022/07/06 12:53:06;;;;;;;;;;;22.80;94.10;;;;;;5008159;28;19921;-68
2022/07/06 12:55:31;;;;;;;;;;;22.90;94.20;;;;;;4996923;28;20346;-67
2022/07/06 12:57:57;;;;;;;;;;;22.80;94.20;;;;;;4996866;28;20041;-68
2022/07/06 13:00:24;;;;;;;;;;;22.80;94.40;;;;;;5014229;28;19921;-67
2022/07/06 13:02:53;;;;;;;;;;;23.10;93.80;;;;;;5008882;28;19925;-69
2022/07/06 13:05:28;;;;;;;;;;;23.10;93.90;;;;;;5008913;28;19925;-67
2022/07/06 13:07:55;;;;;;;;;;;23.40;93.20;;;;;;5011934;28;19913;-68
2022/07/06 13:10:21;;;;;;;;;;;23.40;92.60;;;;;;5005614;28;20280;-67
2022/07/06 13:12:46;;;;;;;;;;;23.30;93.10;;;;;;5017494;28;19920;-68
2022/07/06 13:15:12;;;;;;;;;;;23.20;93.60;;;;;;5010494;28;20394;-66
2022/07/06 13:17:38;;;;;;;;;;;23.40;93.50;;;;;;5012771;28;19917;-68
2022/07/06 13:20:11;;;;;;;;;;;23.50;93.60;;;;;;5012697;28;19922;-67
2022/07/06 13:22:36;;;;;;;;;;;23.80;93.30;;;;;;5005376;28;20020;-67
2022/07/06 13:25:02;;;;;;;;;;;23.70;93.20;;;;;;4989736;28;20097;-69
2022/07/06 13:27:28;;;;;;;;;;;23.60;93.10;;;;;;5007433;28;19920;-66
2022/07/06 13:29:54;;;;;;;;;;;23.40;93.20;;;;;;5012864;28;19933;-68
2022/07/06 13:32:19;;;;;;;;;;;23.20;93.30;;;;;;5010194;28;19944;-69
2022/07/06 13:34:45;;;;;;;;;;;23.20;93.80;;;;;;5009241;28;19977;-68
2022/07/06 13:37:10;;;;;;;;;;;23.50;93.20;;;;;;4994603;28;20326;-67
2022/07/06 13:39:36;;;;;;;;;;;23.40;93.00;;;;;;5004400;28;20253;-69
2022/07/06 13:42:02;;;;;;;;;;;23.10;93.80;;;;;;5007417;28;19913;-67
2022/07/06 13:44:27;;;;;;;;;;;23.10;93.80;;;;;;4987667;28;19918;-68
2022/07/06 13:46:53;;;;;;;;;;;23.20;93.90;;;;;;5007743;28;20168;-69
2022/07/06 13:49:19;;;;;;;;;;;23.10;94.10;;;;;;4995223;28;19936;-68
2022/07/06 13:51:44;;;;;;;;;;;23.20;94.30;;;;;;5004992;28;20343;-68
2022/07/06 13:54:10;;;;;;;;;;;23.40;94.10;;;;;;5005654;28;20277;-68
2022/07/06 13:56:36;;;;;;;;;;;23.40;94.90;;;;;;4992923;28;19917;-68
2022/07/06 13:59:02;;;;;;;;;;;23.40;95.30;;;;;;5004508;28;19918;-69
2022/07/06 14:01:31;;;;;;;;;;;23.20;96.00;;;;;;5010645;28;20255;-71
2022/07/06 14:03:56;;;;;;;;;;;23.20;96.30;;;;;;4994467;28;19959;-69
2022/07/06 14:06:22;;;;;;;;;;;23.30;96.10;;;;;;5012763;28;19913;-69
2022/07/06 14:08:48;;;;;;;;;;;23.40;95.10;;;;;;5010355;28;20055;-67
2022/07/06 14:11:14;;;;;;;;;;;23.20;95.50;;;;;;5001470;28;19945;-67
2022/07/06 14:13:39;;;;;;;;;;;23.20;95.30;;;;;;5007613;28;20012;-69
2022/07/06 14:16:05;;;;;;;;;;;23.20;94.80;;;;;;5008306;28;19936;-69
2022/07/06 14:18:31;;;;;;;;;;;23.20;95.00;;;;;;5002725;28;19914;-69